Huddleston, Arkansas
Current Conditions -  °F | °C
As of 5:53 PM on Sunday 25 Jan 2015 (Local Time) from KMWT Reporting Station
Overcast Overcast  
Wind Chill: 52°   Ceiling: 5000
Heat Index: 52°   Visibility: 10mi
Dew Point: 32°   Wind: 13mph
Humidity: 47%   Direction: 320°NW
Pressure: 29.91"   Gusts: 21mph
Location:  34.6364°N, 93.829°W
Report Text: KMWT 252353Z AUTO 32011G18KT 10SM BKN050 OVC060 11/00 A2991 RMK AO2 SLP130 T01110000 10156 20111 51027 $
Loading
Personal Weather Stations






























Interactive Weather Map New forecast layout! Learn more

10-Day Weather Forecast

Advertisements
Track Severe Weather on mobile